Aérodrome :
LOGIN :

S'inscrire | Disclaimer

   EN    FR    IT 

 










Légende :    VFR   VFR Marginal   IFR   IFR Intensif   IFR Très Intensif
Visi : 
Plafond : 
>= 8 km
>= 3000ft
5 à 8 km
1000 à 3000 ft
1500m à 5 km
500 à 1000 ft
800 à 1500m
200 à 500 ft
< 800m
< 200 ft
Symboles :   Orages  Brouillard  Fortes neiges  Fortes précipitations  Vent > 20 kt
SIGMETs :   Divers  Orages  Givrage  Turbulence  Onde Orograph.  Cendres Volcan.






- Altitude de l'aérodrome : 699 ft
- Code IATA : PAD


EDLP - Paderborn Lippstadt

DERNIER METAR :
  • 291750Z 09010KT CAVOK 19/02 Q1025

METARs EXPIRÉS :
  • 291720Z 08010KT CAVOK 19/01 Q1025
  • 291650Z 08008KT 050V120 CAVOK 20/M01 Q1025
  • 291620Z 10008KT CAVOK 20/M01 Q1025
  • 291550Z 08009KT 020V150 CAVOK 20/M01 Q1026
  • 291520Z 08009KT 040V120 CAVOK 21/01 Q1026
  • 291450Z 05008KT 010V090 CAVOK 20/02 Q1026

TAF TAF EDLP
Valide du 29 à 18h jusqu'au 30 à 18h UTC


291700Z 2918/3018 08007KT CAVOK
BECMG 2920/2923 15005KT
BECMG 3006/3009 07009KT



MET'MAP, la Météo Aéronautique d'un coup d'oeil ! - Copyright ORBIFLY Décembre 2007 - Disclaimer

ORBIFLY MET'MAP TEAM :

Programmation & Développement : Alexandra Zaïnal
Sur une idée originale de : Baudouin d'Aumeries
Assistance à la programmation : Marc-Olivier Méhu
Soutien technique & logistique : Manuel Goepfert

Contact : metmap@orbifly.com




SOURCES & CREDITS :

   NOAA